Porter Ranch, California
Current Conditions -  °F | °C
As of 7:51 AM on Sunday 21 Dec 2014 (Local Time) from KVNY Reporting Station
Clear Clear  
Wind Chill: 54°   Ceiling: Unl
Heat Index: 54°   Visibility: 7mi
Dew Point: 46°   Wind: 3mph
Humidity: 75%   Direction: 60°ENE
Pressure: 30.14"   Gusts: NA
Location:  34.2807°N, 118.556°W
Report Text: KVNY 211551Z 06003KT 7SM CLR 12/08 A3014 RMK AO2 SLP202 T01220078
Loading
Personal Weather Stations






























Interactive Weather Map New forecast layout! Learn more

10-Day Weather Forecast

Advertisements
Track Severe Weather on mobile